createdAt,value
2022-12-05T00:01:22.852Z,29.88
2022-12-05T00:03:50.374Z,31.73
2022-12-05T00:06:17.240Z,34.53
2022-12-05T00:08:44.002Z,34.90
2022-12-05T00:11:11.266Z,39.85
2022-12-05T00:13:39.831Z,34.33
2022-12-05T00:16:10.279Z,34.72
2022-12-05T00:18:36.902Z,34.40
2022-12-05T00:21:03.594Z,40.70
2022-12-05T00:23:30.101Z,32.80
2022-12-05T00:25:56.409Z,34.28
2022-12-05T00:28:22.732Z,32.97
2022-12-05T00:30:48.991Z,33.50
2022-12-05T00:33:15.252Z,32.90
2022-12-05T00:35:41.533Z,49.20
2022-12-05T00:38:07.802Z,34.55
2022-12-05T00:40:35.548Z,31.50
2022-12-05T00:43:01.892Z,34.60
2022-12-05T00:45:28.168Z,38.28
2022-12-05T00:47:54.511Z,32.08
2022-12-05T00:50:20.860Z,35.45
2022-12-05T00:52:47.167Z,35.63
2022-12-05T00:55:13.519Z,36.05
2022-12-05T00:57:39.874Z,38.60
2022-12-05T01:00:06.578Z,36.05
2022-12-05T01:02:32.972Z,39.33
2022-12-05T01:04:59.276Z,37.05
2022-12-05T01:07:25.617Z,36.30
2022-12-05T01:09:52.002Z,40.53
2022-12-05T01:12:18.295Z,38.65
2022-12-05T01:14:44.555Z,36.30
2022-12-05T01:17:11.142Z,34.90
2022-12-05T01:19:37.658Z,35.63
2022-12-05T01:22:03.975Z,37.30
2022-12-05T01:24:30.679Z,44.35
2022-12-05T01:26:57.244Z,42.63
2022-12-05T01:29:24.637Z,37.75
2022-12-05T01:31:51.124Z,34.03
2022-12-05T01:34:18.217Z,41.35
2022-12-05T01:36:46.104Z,35.72
2022-12-05T01:39:13.467Z,37.92
2022-12-05T01:41:44.367Z,36.63
2022-12-05T01:44:10.594Z,36.72
2022-12-05T01:46:38.561Z,37.40
2022-12-05T01:49:07.510Z,37.40
2022-12-05T01:51:34.385Z,33.13
2022-12-05T01:54:01.077Z,33.20
2022-12-05T01:56:27.505Z,33.58
2022-12-05T01:58:53.944Z,35.22
2022-12-05T02:01:20.512Z,33.17
2022-12-05T02:03:48.155Z,34.60
2022-12-05T02:06:14.511Z,33.30
2022-12-05T02:08:41.612Z,33.85
2022-12-05T02:11:08.859Z,33.53
2022-12-05T02:13:53.335Z,34.78
2022-12-05T02:16:28.838Z,37.05
2022-12-05T02:19:14.172Z,39.08
2022-12-05T02:21:59.377Z,35.20
2022-12-05T02:24:25.712Z,35.97
2022-12-05T02:27:15.321Z,34.97
2022-12-05T02:29:41.605Z,37.03
2022-12-05T02:32:10.694Z,39.00
2022-12-05T02:34:45.082Z,38.63
2022-12-05T02:37:14.739Z,38.10
2022-12-05T02:39:47.259Z,40.63
2022-12-05T02:42:18.772Z,36.30
2022-12-05T02:44:53.917Z,35.22
2022-12-05T02:47:23.021Z,33.38
2022-12-05T02:49:49.872Z,37.28
2022-12-05T02:52:16.836Z,34.22
2022-12-05T02:54:44.832Z,32.88
2022-12-05T02:57:12.391Z,29.38
2022-12-05T02:59:39.045Z,33.38
2022-12-05T03:02:05.486Z,34.00
2022-12-05T03:04:32.013Z,27.80
2022-12-05T03:07:06.604Z,30.30
2022-12-05T03:09:42.528Z,30.65
2022-12-05T03:12:19.916Z,29.65
2022-12-05T03:14:48.265Z,30.15
2022-12-05T03:17:18.530Z,30.90
2022-12-05T03:20:00.093Z,27.42
2022-12-05T03:22:35.384Z,26.38
2022-12-05T03:25:02.623Z,25.02
2022-12-05T03:27:44.183Z,26.20
2022-12-05T03:30:12.381Z,26.73
2022-12-05T03:32:57.454Z,29.25
2022-12-05T03:35:39.819Z,34.22
2022-12-05T03:38:27.383Z,33.10
2022-12-05T03:40:57.073Z,36.25
2022-12-05T03:43:31.678Z,34.17
2022-12-05T03:45:57.999Z,35.08
2022-12-05T03:48:30.233Z,31.17
2022-12-05T03:50:57.823Z,36.20
2022-12-05T03:53:37.812Z,33.55
2022-12-05T03:56:06.336Z,35.00
2022-12-05T03:58:35.518Z,32.53
2022-12-05T04:01:04.748Z,34.33
2022-12-05T04:03:40.865Z,30.92
2022-12-05T04:06:30.663Z,33.20
2022-12-05T04:09:02.403Z,37.40
2022-12-05T04:11:32.036Z,31.75
2022-12-05T04:14:00.829Z,37.38
2022-12-05T04:17:05.730Z,35.47
2022-12-05T04:19:54.884Z,38.35
2022-12-05T04:22:21.336Z,34.88
2022-12-05T04:25:07.847Z,31.90
2022-12-05T04:27:39.246Z,30.92
2022-12-05T04:30:05.829Z,31.90
2022-12-05T04:32:43.255Z,31.88
2022-12-05T04:35:12.960Z,33.13
2022-12-05T04:37:42.090Z,32.10
2022-12-05T04:40:28.818Z,32.10
2022-12-05T04:42:56.491Z,30.67
2022-12-05T04:45:24.040Z,33.72
2022-12-05T04:47:53.504Z,32.53
2022-12-05T04:50:20.719Z,36.97
2022-12-05T04:52:49.742Z,33.10
2022-12-05T04:55:17.863Z,33.35
2022-12-05T04:57:53.419Z,34.53
2022-12-05T05:00:19.938Z,31.83
2022-12-05T05:02:55.881Z,35.38
2022-12-05T05:05:23.185Z,36.35
2022-12-05T05:07:51.180Z,37.15
2022-12-05T05:10:36.630Z,40.63
2022-12-05T05:13:02.962Z,41.55
2022-12-05T05:15:29.371Z,42.83
2022-12-05T05:17:55.797Z,41.97
2022-12-05T05:20:25.144Z,38.38
2022-12-05T05:22:51.772Z,39.28
2022-12-05T05:25:18.524Z,46.50
2022-12-05T05:27:48.074Z,44.42
2022-12-05T05:30:14.529Z,57.25
2022-12-05T05:32:40.883Z,50.58
2022-12-05T05:35:07.333Z,46.47
2022-12-05T05:37:33.679Z,54.42
2022-12-05T05:40:00.778Z,65.93
2022-12-05T05:42:28.350Z,67.97
2022-12-05T05:44:54.638Z,117.80
2022-12-05T05:47:20.971Z,97.30
2022-12-05T05:49:47.256Z,61.15
2022-12-05T05:52:13.580Z,64.30
2022-12-05T05:54:40.077Z,49.53
2022-12-05T05:57:06.561Z,74.47
2022-12-05T05:59:33.003Z,61.25
2022-12-05T06:01:59.611Z,55.67
2022-12-05T06:04:25.962Z,57.00
2022-12-05T06:06:52.266Z,52.55
2022-12-05T06:09:18.596Z,54.65
2022-12-05T06:11:44.868Z,60.33
2022-12-05T06:14:11.213Z,48.25
2022-12-05T06:16:37.580Z,54.92
2022-12-05T06:19:03.921Z,51.28
2022-12-05T06:21:30.249Z,61.75
2022-12-05T06:23:56.779Z,61.10
2022-12-05T06:26:23.108Z,60.13
2022-12-05T06:28:49.498Z,60.55
2022-12-05T06:31:17.497Z,64.60
2022-12-05T06:33:44.193Z,55.03
2022-12-05T06:36:11.902Z,52.33
2022-12-05T06:38:42.079Z,60.78
2022-12-05T06:41:10.635Z,62.95
2022-12-05T06:43:37.155Z,54.05
2022-12-05T06:46:07.499Z,91.47
2022-12-05T06:48:34.295Z,57.63
2022-12-05T06:51:00.658Z,77.05
2022-12-05T06:53:27.131Z,63.60
2022-12-05T06:56:00.787Z,94.13
2022-12-05T06:58:27.348Z,70.90
2022-12-05T07:01:12.520Z,82.20
2022-12-05T07:03:39.156Z,82.80
2022-12-05T07:06:06.140Z,65.13
2022-12-05T07:08:32.735Z,63.53
2022-12-05T07:10:59.167Z,56.22
2022-12-05T07:13:25.499Z,57.65
2022-12-05T07:15:51.829Z,77.07
2022-12-05T07:18:18.260Z,60.38
2022-12-05T07:21:10.646Z,59.80
2022-12-05T07:23:31.166Z,74.97
2022-12-05T07:26:00.497Z,74.35
2022-12-05T07:28:26.810Z,50.47
2022-12-05T07:31:07.100Z,69.00
2022-12-05T07:33:33.416Z,57.65
2022-12-05T07:36:00.855Z,67.60
2022-12-05T07:38:27.589Z,63.03
2022-12-05T07:40:53.944Z,62.15
2022-12-05T07:43:20.557Z,63.15
2022-12-05T07:45:46.917Z,59.65
2022-12-05T07:48:18.191Z,66.38
2022-12-05T07:50:45.052Z,58.22
2022-12-05T07:53:11.370Z,62.45
2022-12-05T07:55:38.261Z,61.60
2022-12-05T07:58:04.648Z,63.10
2022-12-05T08:00:30.981Z,62.50
2022-12-05T08:02:57.350Z,59.67
2022-12-05T08:05:23.690Z,58.38
2022-12-05T08:07:50.019Z,58.47
2022-12-05T08:10:16.493Z,59.80
2022-12-05T08:12:42.837Z,58.80
2022-12-05T08:15:09.535Z,54.95
2022-12-05T08:17:35.849Z,55.05
2022-12-05T08:20:02.537Z,60.63
2022-12-05T08:22:29.156Z,56.50
2022-12-05T08:24:56.468Z,53.47
2022-12-05T08:27:22.963Z,56.90
2022-12-05T08:29:49.285Z,50.38
2022-12-05T08:32:15.809Z,57.08
2022-12-05T08:34:42.314Z,56.00
2022-12-05T08:37:08.698Z,49.80
2022-12-05T08:39:38.674Z,50.38
2022-12-05T08:42:05.335Z,46.50
2022-12-05T08:44:31.627Z,45.70
2022-12-05T08:46:58.017Z,45.03
2022-12-05T08:49:24.349Z,46.38
2022-12-05T08:51:50.670Z,47.35
2022-12-05T08:54:17.227Z,44.25
2022-12-05T08:56:43.608Z,51.67
2022-12-05T08:59:09.972Z,49.05
2022-12-05T09:01:38.818Z,41.50
2022-12-05T09:04:05.851Z,45.42
2022-12-05T09:06:32.643Z,45.58
2022-12-05T09:08:59.939Z,43.45
2022-12-05T09:11:30.531Z,45.67
2022-12-05T09:13:57.781Z,44.92
2022-12-05T09:16:25.819Z,44.55
2022-12-05T09:18:52.453Z,41.95
2022-12-05T09:21:19.968Z,46.55
2022-12-05T09:23:46.605Z,44.97
2022-12-05T09:26:15.081Z,46.75
2022-12-05T09:28:41.432Z,42.88
2022-12-05T09:31:09.498Z,40.92
2022-12-05T09:33:36.757Z,41.38
2022-12-05T09:36:06.856Z,46.80
2022-12-05T09:38:34.542Z,42.50
2022-12-05T09:41:13.339Z,41.92
2022-12-05T09:43:48.875Z,40.63
2022-12-05T09:46:36.102Z,41.85
2022-12-05T09:49:04.662Z,41.97
2022-12-05T09:51:32.096Z,47.88
2022-12-05T09:53:58.721Z,46.22
2022-12-05T09:56:30.007Z,43.88
2022-12-05T09:58:57.790Z,48.95
2022-12-05T10:01:24.142Z,48.33
2022-12-05T10:04:02.690Z,44.42
2022-12-05T10:06:32.174Z,52.15
2022-12-05T10:08:58.450Z,49.00
2022-12-05T10:11:45.832Z,44.55
2022-12-05T10:14:15.162Z,46.95
2022-12-05T10:16:50.460Z,47.67
2022-12-05T10:19:21.252Z,48.67
2022-12-05T10:21:56.688Z,50.80
2022-12-05T10:24:46.278Z,53.30
2022-12-05T10:27:19.350Z,52.13
2022-12-05T10:29:50.652Z,61.55
2022-12-05T10:32:23.788Z,57.92
2022-12-05T10:34:50.223Z,59.90
2022-12-05T10:37:18.108Z,58.38
2022-12-05T10:39:45.268Z,61.65
2022-12-05T10:42:29.498Z,55.45
2022-12-05T10:44:58.395Z,61.35
2022-12-05T10:47:25.206Z,59.33
2022-12-05T10:49:52.388Z,55.88
2022-12-05T10:52:18.736Z,55.95
2022-12-05T10:54:51.207Z,56.45
2022-12-05T10:57:22.213Z,56.30
2022-12-05T10:59:48.740Z,50.95
2022-12-05T11:02:30.577Z,51.58
2022-12-05T11:04:58.419Z,51.95
2022-12-05T11:07:36.296Z,55.10
2022-12-05T11:10:21.077Z,51.90
2022-12-05T11:12:50.137Z,59.92
2022-12-05T11:15:16.835Z,52.40
2022-12-05T11:17:43.251Z,53.78
2022-12-05T11:20:15.576Z,51.72
2022-12-05T11:22:45.743Z,49.35
2022-12-05T11:25:23.891Z,49.20
2022-12-05T11:27:50.165Z,52.85
2022-12-05T11:30:21.141Z,48.25
2022-12-05T11:32:47.590Z,47.72
2022-12-05T11:35:13.900Z,50.25
2022-12-05T11:37:46.555Z,47.75
2022-12-05T11:40:14.605Z,46.70
2022-12-05T11:42:48.210Z,43.92
2022-12-05T11:45:35.458Z,52.13
2022-12-05T11:48:16.773Z,42.95
2022-12-05T11:50:52.292Z,35.63
2022-12-05T11:53:21.644Z,35.55
2022-12-05T11:56:14.592Z,31.58
2022-12-05T11:58:45.789Z,36.83
2022-12-05T12:01:21.174Z,34.88
2022-12-05T12:03:55.954Z,35.42
2022-12-05T12:06:31.259Z,40.90
2022-12-05T12:09:20.983Z,35.15
2022-12-05T12:11:56.483Z,37.15
2022-12-05T12:14:31.347Z,36.53
2022-12-05T12:16:57.726Z,36.33
2022-12-05T12:19:36.345Z,43.20
2022-12-05T12:22:18.502Z,43.75
2022-12-05T12:25:00.640Z,46.85
2022-12-05T12:27:46.064Z,42.03
2022-12-05T12:30:17.412Z,47.03
2022-12-05T12:32:52.655Z,46.42
2022-12-05T12:35:24.972Z,69.45
2022-12-05T12:38:03.417Z,62.45
2022-12-05T12:40:34.602Z,57.00
2022-12-05T12:43:44.806Z,50.28
2022-12-05T12:46:11.296Z,46.20
2022-12-05T12:48:53.026Z,44.25
2022-12-05T12:51:19.512Z,49.75
2022-12-05T12:53:57.193Z,53.25
2022-12-05T12:56:38.639Z,51.55
2022-12-05T12:59:17.106Z,47.50
2022-12-05T13:01:50.725Z,51.17
2022-12-05T13:04:23.636Z,47.47
2022-12-05T13:06:55.968Z,44.07
2022-12-05T13:09:34.516Z,44.67
2022-12-05T13:12:04.918Z,46.65
2022-12-05T13:14:33.770Z,82.40
2022-12-05T13:17:01.233Z,56.53
2022-12-05T13:19:43.229Z,46.60
2022-12-05T13:22:09.826Z,42.10
2022-12-05T13:24:36.170Z,41.47
2022-12-05T13:27:05.283Z,40.10
2022-12-05T13:29:41.817Z,45.65
2022-12-05T13:32:24.743Z,42.88
2022-12-05T13:34:51.466Z,43.15
2022-12-05T13:37:41.504Z,39.42
2022-12-05T13:40:39.830Z,42.58
2022-12-05T13:43:06.515Z,39.10
2022-12-05T13:45:34.528Z,40.22
2022-12-05T13:48:11.796Z,41.42
2022-12-05T13:50:43.861Z,42.28
2022-12-05T13:53:19.248Z,40.92
2022-12-05T13:55:59.747Z,44.88
2022-12-05T13:58:26.051Z,40.78
2022-12-05T14:01:12.310Z,36.53
2022-12-05T14:03:38.656Z,43.15
2022-12-05T14:06:06.397Z,35.80
2022-12-05T14:08:35.771Z,36.85
2022-12-05T14:11:02.363Z,35.65
2022-12-05T14:13:30.000Z,38.00
2022-12-05T14:16:16.320Z,38.95
2022-12-05T14:18:46.569Z,38.85
2022-12-05T14:21:12.896Z,38.08
2022-12-05T14:23:39.979Z,40.17
2022-12-05T14:26:31.416Z,38.53
2022-12-05T14:29:01.261Z,39.35
2022-12-05T14:31:37.022Z,37.65
2022-12-05T14:34:04.957Z,36.80
2022-12-05T14:36:31.725Z,38.97
2022-12-05T14:38:58.640Z,39.60
2022-12-05T14:41:33.158Z,43.42
2022-12-05T14:44:05.106Z,41.90
2022-12-05T14:46:34.677Z,40.45
2022-12-05T14:49:20.963Z,40.53
2022-12-05T14:51:55.838Z,36.47
2022-12-05T14:54:23.316Z,40.08
2022-12-05T14:56:52.472Z,36.28
2022-12-05T14:59:18.736Z,45.03
2022-12-05T15:02:05.509Z,36.20
2022-12-05T15:04:51.582Z,38.53
2022-12-05T15:07:25.627Z,34.38
2022-12-05T15:09:51.934Z,38.10
2022-12-05T15:12:20.780Z,34.50
2022-12-05T15:14:50.070Z,37.25
2022-12-05T15:17:18.555Z,37.35
2022-12-05T15:19:57.620Z,35.05
2022-12-05T15:22:26.447Z,39.75
2022-12-05T15:24:52.847Z,36.13
2022-12-05T15:27:20.119Z,38.30
2022-12-05T15:29:46.473Z,35.72
2022-12-05T15:32:12.826Z,39.35
2022-12-05T15:34:44.935Z,39.22
2022-12-05T15:37:26.259Z,38.10
2022-12-05T15:39:53.451Z,36.60
2022-12-05T15:42:24.830Z,34.75
2022-12-05T15:45:10.248Z,37.55
2022-12-05T15:47:36.579Z,41.45
2022-12-05T15:50:03.737Z,35.47
2022-12-05T15:52:45.361Z,37.45
2022-12-05T15:55:13.865Z,43.22
2022-12-05T15:57:46.313Z,37.08
2022-12-05T16:00:17.673Z,39.80
2022-12-05T16:02:49.865Z,41.28
2022-12-05T16:05:20.480Z,36.40
2022-12-05T16:07:48.048Z,33.70
2022-12-05T16:10:15.690Z,34.15
2022-12-05T16:12:42.740Z,43.38
2022-12-05T16:15:21.613Z,35.83
2022-12-05T16:17:51.910Z,37.92
2022-12-05T16:20:18.208Z,35.13
2022-12-05T16:22:45.887Z,33.67
2022-12-05T16:25:16.915Z,39.00
2022-12-05T16:27:55.250Z,39.83
2022-12-05T16:30:22.275Z,41.33
2022-12-05T16:32:49.744Z,42.22
2022-12-05T16:35:28.408Z,41.00
2022-12-05T16:38:15.124Z,40.20
2022-12-05T16:41:01.805Z,40.40
2022-12-05T16:43:40.714Z,39.08
2022-12-05T16:46:13.319Z,40.35
2022-12-05T16:48:40.635Z,34.33
2022-12-05T16:51:13.141Z,43.60
2022-12-05T16:53:40.564Z,40.45
2022-12-05T16:56:07.495Z,39.28
2022-12-05T16:58:34.861Z,37.35
2022-12-05T17:01:02.576Z,34.78
2022-12-05T17:03:36.481Z,31.42
2022-12-05T17:06:03.112Z,33.75
2022-12-05T17:08:29.553Z,30.48
2022-12-05T17:10:55.919Z,31.10
2022-12-05T17:13:22.207Z,32.55
2022-12-05T17:15:49.419Z,34.65
2022-12-05T17:18:16.883Z,34.53
2022-12-05T17:20:44.759Z,38.67
2022-12-05T17:23:11.858Z,37.22
2022-12-05T17:25:38.777Z,38.83
2022-12-05T17:28:05.045Z,34.22
2022-12-05T17:30:34.169Z,38.40
2022-12-05T17:33:01.176Z,39.13
2022-12-05T17:35:28.709Z,38.97
2022-12-05T17:37:54.975Z,33.97
2022-12-05T17:40:21.329Z,37.88
2022-12-05T17:42:48.528Z,35.45
2022-12-05T17:45:15.829Z,34.15
2022-12-05T17:47:42.684Z,38.15
2022-12-05T17:50:14.231Z,36.58
2022-12-05T17:52:40.717Z,33.15
2022-12-05T17:55:08.083Z,39.40
2022-12-05T17:57:35.241Z,31.40
2022-12-05T18:00:01.623Z,36.60
2022-12-05T18:02:27.952Z,37.53
2022-12-05T18:04:54.285Z,29.65
2022-12-05T18:07:20.653Z,36.33
2022-12-05T18:09:46.997Z,36.92
2022-12-05T18:12:13.315Z,32.80
2022-12-05T18:14:39.596Z,33.13
2022-12-05T18:17:05.914Z,28.73
2022-12-05T18:19:32.216Z,33.22
2022-12-05T18:21:58.574Z,31.35
2022-12-05T18:24:24.910Z,31.67
2022-12-05T18:26:51.282Z,35.22
2022-12-05T18:29:17.724Z,36.83
2022-12-05T18:31:44.234Z,32.35
2022-12-05T18:34:10.597Z,36.92
2022-12-05T18:36:36.874Z,38.92
2022-12-05T18:39:03.366Z,39.55
2022-12-05T18:41:29.628Z,35.50
2022-12-05T18:43:55.940Z,36.85
2022-12-05T18:46:22.655Z,36.90
2022-12-05T18:48:49.028Z,36.17
2022-12-05T18:51:20.555Z,36.15
2022-12-05T18:53:52.109Z,39.30
2022-12-05T18:56:22.754Z,38.17
2022-12-05T18:58:54.043Z,38.50
2022-12-05T19:01:21.085Z,38.90
2022-12-05T19:03:48.875Z,37.95
2022-12-05T19:06:16.906Z,40.00
2022-12-05T19:08:46.782Z,38.75
2022-12-05T19:11:14.639Z,37.10
2022-12-05T19:13:41.062Z,45.75
2022-12-05T19:16:08.901Z,37.47
2022-12-05T19:18:35.348Z,37.05
2022-12-05T19:21:01.986Z,35.72
2022-12-05T19:23:28.540Z,40.00
2022-12-05T19:25:55.787Z,35.17
2022-12-05T19:28:22.115Z,35.85
2022-12-05T19:30:48.447Z,38.03
2022-12-05T19:33:14.782Z,37.38
2022-12-05T19:35:41.173Z,37.50
2022-12-05T19:38:07.498Z,35.05
2022-12-05T19:40:33.836Z,35.13
2022-12-05T19:43:00.251Z,37.05
2022-12-05T19:45:26.580Z,35.00
2022-12-05T19:47:52.957Z,32.08
2022-12-05T19:50:19.484Z,34.00
2022-12-05T19:52:45.771Z,33.65
2022-12-05T19:55:12.106Z,33.10
2022-12-05T19:57:38.435Z,33.35
2022-12-05T20:00:05.195Z,33.17
2022-12-05T20:02:40.293Z,33.30
2022-12-05T20:05:07.001Z,38.58
2022-12-05T20:07:34.109Z,31.77
2022-12-05T20:10:00.740Z,34.33
2022-12-05T20:12:27.237Z,32.45
2022-12-05T20:14:53.538Z,34.97
2022-12-05T20:17:20.757Z,34.58
2022-12-05T20:19:47.035Z,35.80
2022-12-05T20:22:13.327Z,31.92
2022-12-05T20:24:39.620Z,32.58
2022-12-05T20:27:07.249Z,33.72
2022-12-05T20:29:33.550Z,33.63
2022-12-05T20:31:59.840Z,34.90
2022-12-05T20:34:26.192Z,35.88
2022-12-05T20:36:52.520Z,30.92
2022-12-05T20:39:18.790Z,36.25
2022-12-05T20:41:45.408Z,31.88
2022-12-05T20:44:13.560Z,34.58
2022-12-05T20:46:40.618Z,38.67
2022-12-05T20:49:07.218Z,35.03
2022-12-05T20:51:34.221Z,34.63
2022-12-05T20:54:02.201Z,40.55
2022-12-05T20:56:29.716Z,34.72
2022-12-05T20:58:57.207Z,37.33
2022-12-05T21:01:24.328Z,32.20
2022-12-05T21:03:51.632Z,35.28
2022-12-05T21:06:28.769Z,37.72
2022-12-05T21:08:55.131Z,34.42
2022-12-05T21:11:22.007Z,38.92
2022-12-05T21:13:48.493Z,39.90
2022-12-05T21:16:17.615Z,31.88
2022-12-05T21:18:44.470Z,30.42
2022-12-05T21:21:14.940Z,25.05
2022-12-05T21:23:41.899Z,18.73
2022-12-05T21:26:10.307Z,16.27
2022-12-05T21:28:37.039Z,16.27
2022-12-05T21:31:17.452Z,14.85
2022-12-05T21:33:46.656Z,12.65
2022-12-05T21:36:13.179Z,12.25
2022-12-05T21:38:39.575Z,9.43
2022-12-05T21:41:06.343Z,8.07
2022-12-05T21:43:33.716Z,8.65
2022-12-05T21:46:00.221Z,6.53
2022-12-05T21:48:26.629Z,7.28
2022-12-05T21:50:53.329Z,9.57
2022-12-05T21:53:19.814Z,6.60
2022-12-05T21:55:46.193Z,7.75
2022-12-05T21:58:12.888Z,5.60
2022-12-05T22:00:39.401Z,5.15
2022-12-05T22:03:06.311Z,8.18
2022-12-05T22:05:33.407Z,7.22
2022-12-05T22:08:04.769Z,7.55
2022-12-05T22:10:33.616Z,6.65
2022-12-05T22:12:59.993Z,6.75
2022-12-05T22:15:26.307Z,7.55
2022-12-05T22:17:52.578Z,7.93
2022-12-05T22:20:18.948Z,6.93
2022-12-05T22:22:45.331Z,6.90
2022-12-05T22:25:11.625Z,6.40
2022-12-05T22:27:37.952Z,6.57
2022-12-05T22:30:04.818Z,7.00
2022-12-05T22:32:31.150Z,6.70
2022-12-05T22:35:03.341Z,6.47
2022-12-05T22:37:30.200Z,5.32
2022-12-05T22:39:56.851Z,4.53
2022-12-05T22:42:23.493Z,5.00
2022-12-05T22:44:49.868Z,6.15
2022-12-05T22:47:16.141Z,6.32
2022-12-05T22:49:42.428Z,4.90
2022-12-05T22:52:08.738Z,3.80
2022-12-05T22:54:35.042Z,4.32
2022-12-05T22:57:01.378Z,7.20
2022-12-05T22:59:27.694Z,7.28
2022-12-05T23:01:54.066Z,4.97
2022-12-05T23:04:20.425Z,5.43
2022-12-05T23:06:46.777Z,6.82
2022-12-05T23:09:14.463Z,6.47
2022-12-05T23:11:40.827Z,5.72
2022-12-05T23:14:07.173Z,5.95
2022-12-05T23:16:33.711Z,6.00
2022-12-05T23:19:01.384Z,5.57
2022-12-05T23:21:29.618Z,7.40
2022-12-05T23:23:57.436Z,7.03
2022-12-05T23:26:25.285Z,6.05
2022-12-05T23:28:51.680Z,7.28
2022-12-05T23:31:18.388Z,8.05
2022-12-05T23:33:45.092Z,7.80
2022-12-05T23:36:11.743Z,7.60
2022-12-05T23:38:39.144Z,8.52
2022-12-05T23:41:07.095Z,8.18
2022-12-05T23:43:34.187Z,7.93
2022-12-05T23:46:00.677Z,10.68
2022-12-05T23:48:27.509Z,8.30
2022-12-05T23:51:01.081Z,7.68
2022-12-05T23:53:28.221Z,8.88
2022-12-05T23:55:54.855Z,8.55
2022-12-05T23:58:21.241Z,10.02
